Time;durP1;ratioP1;P1;durP2;ratioP2;P2;SDS_P1;SDS_P2;PMS_P1;PMS_P2;Temp;Humidity;BMP_temperature;BMP_pressure;BME280_temperature;BME280_humidity;BME280_pressure;Samples;Min_cycle;Max_cycle;Signal;HPM_P1;HPM_P2
2022/08/10 00:02:22;;;;;;;;;;;;;;;;;;5069760;28;19970;-80
2022/08/10 00:04:47;;;;;;;;;;;;;;;;;;5070763;28;19921;-80
2022/08/10 00:07:12;;;;;;;;;;;;;;;;;;5070811;28;20414;-79
2022/08/10 00:09:37;;;;;;;;;;;;;;;;;;5071759;28;19913;-80
2022/08/10 00:12:02;;;;;;;;;;;;;;;;;;5070464;28;19914;-79
2022/08/10 00:14:27;;;;;;;;;;;;;;;;;;5070552;28;20423;-79
2022/08/10 00:16:52;;;;;;;;;;;;;;;;;;5071682;28;19916;-79
2022/08/10 00:19:18;;;;;;;;;;;;;;;;;;5071039;28;20030;-80
2022/08/10 00:21:43;;;;;;;;;;;;;;;;;;5067796;28;19966;-79
2022/08/10 00:24:08;;;;;;;;;;;;;;;;;;5070139;28;20009;-79
2022/08/10 00:26:33;;;;;;;;;;;;;;;;;;5071315;28;19913;-79
2022/08/10 00:28:58;;;;;;;;;;;;;;;;;;5070948;28;20024;-79
2022/08/10 00:31:23;;;;;;;;;;;;;;;;;;5066428;28;19952;-80
2022/08/10 00:33:48;;;;;;;;;;;;;;;;;;5070933;28;19921;-79
2022/08/10 00:36:14;;;;;;;;;;;;;;;;;;5069942;28;19921;-80
2022/08/10 00:38:39;;;;;;;;;;;;;;;;;;5072253;28;19915;-79
2022/08/10 00:41:04;;;;;;;;;;;;;;;;;;5070533;28;19913;-80
2022/08/10 00:43:29;;;;;;;;;;;;;;;;;;5070579;28;19917;-79
2022/08/10 00:45:54;;;;;;;;;;;;;;;;;;5069931;28;19916;-79
2022/08/10 00:48:19;;;;;;;;;;;;;;;;;;5071655;28;19916;-78
2022/08/10 00:50:44;;;;;;;;;;;;;;;;;;5066676;28;20263;-79
2022/08/10 00:53:10;;;;;;;;;;;;;;;;;;5072454;28;20382;-79
2022/08/10 00:55:35;;;;;;;;;;;;;;;;;;5069419;28;19920;-80
2022/08/10 00:58:00;;;;;;;;;;;;;;;;;;5071346;28;20279;-79
2022/08/10 01:00:26;;;;;;;;;;;;;;;;;;5072135;28;19912;-80
2022/08/10 01:02:52;;;;;;;;;;;;;;;;;;5070441;28;20282;-80
2022/08/10 01:05:18;;;;;;;;;;;;;;;;;;5070140;28;19913;-80
2022/08/10 01:07:44;;;;;;;;;;;;;;;;;;5070382;28;19956;-80
2022/08/10 01:10:09;;;;;;;;;;;;;;;;;;5070086;28;19949;-80
2022/08/10 01:12:34;;;;;;;;;;;;;;;;;;5070617;28;19932;-80
2022/08/10 01:14:59;;;;;;;;;;;;;;;;;;5071168;28;19912;-79
2022/08/10 01:17:24;;;;;;;;;;;;;;;;;;5068697;28;20598;-80
2022/08/10 01:19:49;;;;;;;;;;;;;;;;;;5072022;28;20011;-80
2022/08/10 01:22:15;;;;;;;;;;;;;;;;;;5068350;28;20072;-80
2022/08/10 01:24:40;;;;;;;;;;;;;;;;;;5071793;28;19940;-79
2022/08/10 01:27:05;;;;;;;;;;;;;;;;;;5071069;28;20275;-80
2022/08/10 01:29:30;;;;;;;;;;;;;;;;;;5070840;28;19959;-79
2022/08/10 01:31:55;;;;;;;;;;;;;;;;;;5071713;28;19932;-79
2022/08/10 01:34:20;;;;;;;;;;;;;;;;;;5073664;28;20029;-79
2022/08/10 01:36:45;;;;;;;;;;;;;;;;;;5073566;28;20341;-80
2022/08/10 01:39:10;;;;;;;;;;;;;;;;;;5073210;28;20272;-80
2022/08/10 01:41:36;;;;;;;;;;;;;;;;;;5073609;28;19916;-80
2022/08/10 01:44:01;;;;;;;;;;;;;;;;;;5073429;28;20306;-79
2022/08/10 01:46:26;;;;;;;;;;;;;;;;;;5074991;28;19962;-79
2022/08/10 01:48:51;;;;;;;;;;;;;;;;;;5072762;28;20390;-80
2022/08/10 01:51:16;;;;;;;;;;;;;;;;;;5072631;28;20351;-80
2022/08/10 01:53:41;;;;;;;;;;;;;;;;;;5073164;28;19920;-79
2022/08/10 01:56:07;;;;;;;;;;;;;;;;;;5064917;28;20382;-79
2022/08/10 01:58:32;;;;;;;;;;;;;;;;;;5053873;28;19913;-79
2022/08/10 02:00:57;;;;;;;;;;;;;;;;;;5066782;28;19956;-79
2022/08/10 02:03:22;;;;;;;;;;;;;;;;;;5067300;28;20295;-80
2022/08/10 02:05:47;;;;;;;;;;;;;;;;;;5046033;28;19915;-79
2022/08/10 02:08:12;;;;;;;;;;;;;;;;;;5034627;28;19919;-78
2022/08/10 02:10:38;;;;;;;;;;;;;;;;;;5027139;28;19920;-78
2022/08/10 02:13:03;;;;;;;;;;;;;;;;;;5037016;28;19912;-78
2022/08/10 02:15:28;;;;;;;;;;;;;;;;;;5035748;28;20014;-78
2022/08/10 02:17:53;;;;;;;;;;;;;;;;;;5054484;28;19913;-78
2022/08/10 02:20:18;;;;;;;;;;;;;;;;;;5034714;28;20371;-79
2022/08/10 02:22:43;;;;;;;;;;;;;;;;;;5053507;28;20235;-78
2022/08/10 02:25:08;;;;;;;;;;;;;;;;;;5052809;28;19936;-78
2022/08/10 02:27:33;;;;;;;;;;;;;;;;;;5053126;28;19913;-78
2022/08/10 02:29:59;;;;;;;;;;;;;;;;;;5036437;28;19916;-78
2022/08/10 02:32:24;;;;;;;;;;;;;;;;;;5053328;28;19913;-78
2022/08/10 02:34:49;;;;;;;;;;;;;;;;;;5054503;28;19999;-78
2022/08/10 02:37:14;;;;;;;;;;;;;;;;;;5053081;28;19920;-78
2022/08/10 02:39:39;;;;;;;;;;;;;;;;;;5035022;28;19913;-78
2022/08/10 02:42:04;;;;;;;;;;;;;;;;;;5052554;28;19913;-78
2022/08/10 02:44:29;;;;;;;;;;;;;;;;;;5053483;28;20422;-78
2022/08/10 02:46:55;;;;;;;;;;;;;;;;;;5035137;28;19916;-78
2022/08/10 02:49:20;;;;;;;;;;;;;;;;;;5036083;28;19944;-79
2022/08/10 02:51:45;;;;;;;;;;;;;;;;;;5049979;28;19912;-79
2022/08/10 02:54:10;;;;;;;;;;;;;;;;;;5035841;28;19913;-79
2022/08/10 02:56:35;;;;;;;;;;;;;;;;;;5052609;28;20354;-79
2022/08/10 02:59:00;;;;;;;;;;;;;;;;;;5053756;28;19916;-79
2022/08/10 03:01:25;;;;;;;;;;;;;;;;;;5036159;28;19909;-80
2022/08/10 03:03:51;;;;;;;;;;;;;;;;;;5052566;28;19928;-80
2022/08/10 03:06:16;;;;;;;;;;;;;;;;;;5053720;28;19966;-80
2022/08/10 03:08:41;;;;;;;;;;;;;;;;;;5050244;28;20009;-80
2022/08/10 03:11:06;;;;;;;;;;;;;;;;;;5053526;28;20386;-80
2022/08/10 03:13:31;;;;;;;;;;;;;;;;;;5033817;28;20426;-80
2022/08/10 03:15:56;;;;;;;;;;;;;;;;;;5036033;28;19909;-79
2022/08/10 03:18:23;;;;;;;;;;;;;;;;;;5052427;28;19912;-79
2022/08/10 03:20:48;;;;;;;;;;;;;;;;;;5049502;28;19936;-79
2022/08/10 03:23:13;;;;;;;;;;;;;;;;;;5051259;28;19913;-80
2022/08/10 03:25:38;;;;;;;;;;;;;;;;;;5019236;28;19909;-80
2022/08/10 03:28:03;;;;;;;;;;;;;;;;;;5015836;28;19915;-79
2022/08/10 03:30:30;;;;;;;;;;;;;;;;;;5049910;28;20347;-79
2022/08/10 03:32:55;;;;;;;;;;;;;;;;;;5053344;28;19913;-79
2022/08/10 03:35:20;;;;;;;;;;;;;;;;;;5052124;28;19913;-79
2022/08/10 03:37:45;;;;;;;;;;;;;;;;;;5034893;28;19953;-79
2022/08/10 03:40:10;;;;;;;;;;;;;;;;;;5032552;28;19962;-79
2022/08/10 03:42:35;;;;;;;;;;;;;;;;;;5035258;28;19920;-79
2022/08/10 03:45:01;;;;;;;;;;;;;;;;;;5051216;28;20374;-79
2022/08/10 03:47:26;;;;;;;;;;;;;;;;;;5053240;28;19912;-79
2022/08/10 03:49:51;;;;;;;;;;;;;;;;;;5033555;28;19925;-79
2022/08/10 03:52:16;;;;;;;;;;;;;;;;;;5033016;28;19913;-78
2022/08/10 03:54:41;;;;;;;;;;;;;;;;;;5052121;28;19908;-78
2022/08/10 03:57:06;;;;;;;;;;;;;;;;;;5051979;28;19917;-78
2022/08/10 03:59:31;;;;;;;;;;;;;;;;;;5034671;28;20168;-79
2022/08/10 04:01:57;;;;;;;;;;;;;;;;;;5019660;28;19913;-79
2022/08/10 04:04:22;;;;;;;;;;;;;;;;;;5051965;28;20364;-78
2022/08/10 04:06:47;;;;;;;;;;;;;;;;;;5050867;28;20360;-79
2022/08/10 04:09:12;;;;;;;;;;;;;;;;;;5034642;28;20268;-79
2022/08/10 04:11:39;;;;;;;;;;;;;;;;;;5050278;28;19913;-79
2022/08/10 04:14:04;;;;;;;;;;;;;;;;;;5034345;28;20322;-79
2022/08/10 04:16:29;;;;;;;;;;;;;;;;;;5033183;28;19917;-80
2022/08/10 04:18:54;;;;;;;;;;;;;;;;;;5034330;28;19917;-79
2022/08/10 04:21:20;;;;;;;;;;;;;;;;;;5050081;28;20413;-79
2022/08/10 04:23:45;;;;;;;;;;;;;;;;;;5048885;28;20000;-79
2022/08/10 04:26:10;;;;;;;;;;;;;;;;;;5034302;28;19908;-79
2022/08/10 04:28:35;;;;;;;;;;;;;;;;;;5030002;28;20368;-79
2022/08/10 04:31:00;;;;;;;;;;;;;;;;;;5051693;28;20363;-79
2022/08/10 04:33:25;;;;;;;;;;;;;;;;;;5051849;28;19920;-79
2022/08/10 04:35:50;;;;;;;;;;;;;;;;;;5034510;28;19920;-79
2022/08/10 04:38:15;;;;;;;;;;;;;;;;;;5032367;28;19913;-79
2022/08/10 04:40:41;;;;;;;;;;;;;;;;;;5050400;28;20369;-79
2022/08/10 04:43:06;;;;;;;;;;;;;;;;;;5033520;28;20283;-79
2022/08/10 04:45:31;;;;;;;;;;;;;;;;;;5034051;28;20266;-79
2022/08/10 04:47:56;;;;;;;;;;;;;;;;;;5050917;28;19913;-78
2022/08/10 04:50:21;;;;;;;;;;;;;;;;;;5030566;28;19916;-78
2022/08/10 04:52:46;;;;;;;;;;;;;;;;;;5034471;28;20351;-79
2022/08/10 04:55:11;;;;;;;;;;;;;;;;;;5051689;28;19931;-80
2022/08/10 04:57:37;;;;;;;;;;;;;;;;;;5051996;28;19919;-80
2022/08/10 05:00:02;;;;;;;;;;;;;;;;;;5048050;28;20003;-79
2022/08/10 05:02:27;;;;;;;;;;;;;;;;;;5049838;28;20363;-81
2022/08/10 05:04:52;;;;;;;;;;;;;;;;;;5034401;28;19912;-79
2022/08/10 05:07:17;;;;;;;;;;;;;;;;;;5035885;28;19920;-78
2022/08/10 05:09:42;;;;;;;;;;;;;;;;;;5055557;28;20401;-77
2022/08/10 05:12:08;;;;;;;;;;;;;;;;;;5054600;28;19972;-78
2022/08/10 05:14:33;;;;;;;;;;;;;;;;;;5054383;28;19913;-77
2022/08/10 05:16:58;;;;;;;;;;;;;;;;;;5055596;28;19917;-78
2022/08/10 05:19:23;;;;;;;;;;;;;;;;;;5037665;28;19984;-78
2022/08/10 05:21:48;;;;;;;;;;;;;;;;;;5053715;28;19998;-78
2022/08/10 05:24:13;;;;;;;;;;;;;;;;;;5054982;28;20382;-77
2022/08/10 05:26:38;;;;;;;;;;;;;;;;;;5036592;28;19935;-76
2022/08/10 05:29:04;;;;;;;;;;;;;;;;;;5050902;28;19920;-76
2022/08/10 05:31:29;;;;;;;;;;;;;;;;;;5055361;28;20015;-76
2022/08/10 05:33:54;;;;;;;;;;;;;;;;;;5037504;28;19909;-76
2022/08/10 05:36:19;;;;;;;;;;;;;;;;;;5036226;28;19970;-76
2022/08/10 05:38:44;;;;;;;;;;;;;;;;;;5051818;28;19913;-76
2022/08/10 05:41:09;;;;;;;;;;;;;;;;;;5055121;28;19960;-76
2022/08/10 05:43:34;;;;;;;;;;;;;;;;;;5055491;28;20015;-76
2022/08/10 05:46:00;;;;;;;;;;;;;;;;;;5055314;28;19909;-76
2022/08/10 05:48:25;;;;;;;;;;;;;;;;;;5036386;28;19913;-77
2022/08/10 05:50:50;;;;;;;;;;;;;;;;;;5050779;28;19967;-76
2022/08/10 05:53:15;;;;;;;;;;;;;;;;;;5053061;28;19913;-76
2022/08/10 05:55:40;;;;;;;;;;;;;;;;;;5036584;28;19909;-76
2022/08/10 05:58:05;;;;;;;;;;;;;;;;;;5036992;28;19924;-76
2022/08/10 06:00:30;;;;;;;;;;;;;;;;;;5034669;28;19909;-76
2022/08/10 06:02:55;;;;;;;;;;;;;;;;;;5053800;28;20123;-76
2022/08/10 06:05:21;;;;;;;;;;;;;;;;;;5054751;28;19913;-76
2022/08/10 06:07:46;;;;;;;;;;;;;;;;;;5054604;28;19921;-76
2022/08/10 06:10:11;;;;;;;;;;;;;;;;;;5022453;28;19941;-76
2022/08/10 06:12:36;;;;;;;;;;;;;;;;;;5051774;28;19912;-76
2022/08/10 06:15:02;;;;;;;;;;;;;;;;;;5035957;28;19916;-76
2022/08/10 06:17:28;;;;;;;;;;;;;;;;;;5052092;28;19917;-77
2022/08/10 06:19:53;;;;;;;;;;;;;;;;;;5053085;28;20329;-75
2022/08/10 06:22:18;;;;;;;;;;;;;;;;;;5049525;28;19970;-76
2022/08/10 06:24:43;;;;;;;;;;;;;;;;;;5052971;28;19917;-76
2022/08/10 06:27:08;;;;;;;;;;;;;;;;;;5053455;28;19921;-76
2022/08/10 06:29:33;;;;;;;;;;;;;;;;;;5053913;28;20011;-76
2022/08/10 06:31:59;;;;;;;;;;;;;;;;;;5036586;28;19913;-76
2022/08/10 06:34:24;;;;;;;;;;;;;;;;;;5052884;28;19999;-76
2022/08/10 06:36:49;;;;;;;;;;;;;;;;;;5035336;28;19924;-76
2022/08/10 06:39:14;;;;;;;;;;;;;;;;;;5050610;28;19936;-76
2022/08/10 06:41:39;;;;;;;;;;;;;;;;;;5035421;28;19913;-77
2022/08/10 06:44:05;;;;;;;;;;;;;;;;;;5053626;28;19952;-77
2022/08/10 06:46:30;;;;;;;;;;;;;;;;;;5052361;28;19917;-76
2022/08/10 06:48:55;;;;;;;;;;;;;;;;;;5053372;28;19923;-76
2022/08/10 06:51:20;;;;;;;;;;;;;;;;;;5030995;28;19913;-76
2022/08/10 06:53:45;;;;;;;;;;;;;;;;;;5030340;28;19921;-76
2022/08/10 06:56:10;;;;;;;;;;;;;;;;;;5030954;28;19917;-76
2022/08/10 06:58:35;;;;;;;;;;;;;;;;;;5048069;28;19924;-75
2022/08/10 07:01:01;;;;;;;;;;;;;;;;;;5046812;28;19913;-75
2022/08/10 07:03:26;;;;;;;;;;;;;;;;;;5044714;28;20057;-75
2022/08/10 07:05:52;;;;;;;;;;;;;;;;;;5072900;28;19919;-76
2022/08/10 07:08:17;;;;;;;;;;;;;;;;;;5070528;28;19912;-77
2022/08/10 07:10:43;;;;;;;;;;;;;;;;;;5054606;28;19962;-77
2022/08/10 07:13:08;;;;;;;;;;;;;;;;;;5058174;28;19909;-76
2022/08/10 07:15:34;;;;;;;;;;;;;;;;;;5072014;28;19915;-76
2022/08/10 07:17:59;;;;;;;;;;;;;;;;;;5067819;28;19932;-77
2022/08/10 07:20:24;;;;;;;;;;;;;;;;;;5068167;28;19912;-78
2022/08/10 07:22:49;;;;;;;;;;;;;;;;;;5067439;28;19964;-79
2022/08/10 07:25:14;;;;;;;;;;;;;;;;;;5053185;28;19913;-81
2022/08/10 07:27:48;;;;;;;;;;;;;;;;;;5068991;28;19940;-77
2022/08/10 07:30:13;;;;;;;;;;;;;;;;;;5068404;28;19908;-79
2022/08/10 07:32:39;;;;;;;;;;;;;;;;;;5069434;28;19923;-80
2022/08/10 07:35:04;;;;;;;;;;;;;;;;;;5072265;28;19995;-80
2022/08/10 07:37:29;;;;;;;;;;;;;;;;;;5073041;28;19963;-79
2022/08/10 07:39:54;;;;;;;;;;;;;;;;;;5072874;28;19912;-79
2022/08/10 07:42:19;;;;;;;;;;;;;;;;;;5068877;28;19913;-78
2022/08/10 07:44:44;;;;;;;;;;;;;;;;;;5071813;28;19909;-79
2022/08/10 07:47:09;;;;;;;;;;;;;;;;;;5073245;28;19915;-79
2022/08/10 07:49:35;;;;;;;;;;;;;;;;;;5071754;28;20454;-79
2022/08/10 07:52:00;;;;;;;;;;;;;;;;;;5071649;28;20362;-79
2022/08/10 07:54:25;;;;;;;;;;;;;;;;;;5071540;28;19924;-79
2022/08/10 07:56:50;;;;;;;;;;;;;;;;;;5072435;28;19917;-79
2022/08/10 07:59:15;;;;;;;;;;;;;;;;;;5070354;28;19944;-80
2022/08/10 08:01:40;;;;;;;;;;;;;;;;;;5052087;28;19916;-80
2022/08/10 08:04:05;;;;;;;;;;;;;;;;;;5051564;28;20272;-79
2022/08/10 08:06:31;;;;;;;;;;;;;;;;;;5053386;28;20029;-78
2022/08/10 08:08:59;;;;;;;;;;;;;;;;;;5065531;28;21184;-79
2022/08/10 08:11:24;;;;;;;;;;;;;;;;;;5072747;28;19908;-79
2022/08/10 08:13:49;;;;;;;;;;;;;;;;;;5071731;28;20370;-79
2022/08/10 08:16:14;;;;;;;;;;;;;;;;;;5071710;28;19920;-79
2022/08/10 08:18:39;;;;;;;;;;;;;;;;;;5072862;28;19908;-79
2022/08/10 08:21:05;;;;;;;;;;;;;;;;;;5069111;28;20382;-80
2022/08/10 08:23:30;;;;;;;;;;;;;;;;;;5072732;28;20007;-79
2022/08/10 08:25:55;;;;;;;;;;;;;;;;;;5072466;28;19923;-80
2022/08/10 08:28:20;;;;;;;;;;;;;;;;;;5072591;28;19909;-79
2022/08/10 08:30:45;;;;;;;;;;;;;;;;;;5070390;28;19920;-80
2022/08/10 08:33:12;;;;;;;;;;;;;;;;;;5072517;28;20359;-79
2022/08/10 08:35:37;;;;;;;;;;;;;;;;;;5071421;28;20376;-80
2022/08/10 08:38:02;;;;;;;;;;;;;;;;;;5072249;28;19921;-79
2022/08/10 08:40:27;;;;;;;;;;;;;;;;;;5069587;28;19931;-79
2022/08/10 08:42:52;;;;;;;;;;;;;;;;;;5072049;28;19915;-80
2022/08/10 08:45:18;;;;;;;;;;;;;;;;;;5071160;28;19912;-80
2022/08/10 08:47:43;;;;;;;;;;;;;;;;;;5072621;28;19913;-80
2022/08/10 08:50:08;;;;;;;;;;;;;;;;;;5072471;28;20366;-79
2022/08/10 08:52:33;;;;;;;;;;;;;;;;;;5069036;28;20423;-80
2022/08/10 08:54:59;;;;;;;;;;;;;;;;;;5072182;28;20424;-79
2022/08/10 08:57:24;;;;;;;;;;;;;;;;;;5071001;28;20294;-80
2022/08/10 08:59:49;;;;;;;;;;;;;;;;;;5070456;28;20015;-80
2022/08/10 09:02:14;;;;;;;;;;;;;;;;;;5070920;28;20397;-80
2022/08/10 09:04:39;;;;;;;;;;;;;;;;;;5070862;28;20382;-79
2022/08/10 09:07:06;;;;;;;;;;;;;;;;;;5069720;28;20001;-79
2022/08/10 09:09:31;;;;;;;;;;;;;;;;;;5054761;28;19913;-79
2022/08/10 09:11:56;;;;;;;;;;;;;;;;;;5050711;28;19909;-79
2022/08/10 09:14:21;;;;;;;;;;;;;;;;;;5070006;28;19925;-78
2022/08/10 09:16:47;;;;;;;;;;;;;;;;;;5070812;28;19921;-78
2022/08/10 09:19:12;;;;;;;;;;;;;;;;;;5070573;28;19909;-79
2022/08/10 09:21:37;;;;;;;;;;;;;;;;;;5067461;28;19912;-79
2022/08/10 09:24:02;;;;;;;;;;;;;;;;;;5056972;28;19913;-80
2022/08/10 09:26:27;;;;;;;;;;;;;;;;;;5051537;28;20003;-79
2022/08/10 09:28:52;;;;;;;;;;;;;;;;;;5051753;28;20311;-79
2022/08/10 09:31:17;;;;;;;;;;;;;;;;;;5067387;28;19919;-79
2022/08/10 09:33:43;;;;;;;;;;;;;;;;;;5067305;28;20363;-79
2022/08/10 09:36:08;;;;;;;;;;;;;;;;;;5061400;28;20370;-79
2022/08/10 09:38:33;;;;;;;;;;;;;;;;;;5071469;28;19948;-79
2022/08/10 09:40:58;;;;;;;;;;;;;;;;;;5067444;28;19938;-79
2022/08/10 09:43:23;;;;;;;;;;;;;;;;;;5071774;28;20421;-79
2022/08/10 09:45:49;;;;;;;;;;;;;;;;;;5068070;28;20352;-80
2022/08/10 09:48:14;;;;;;;;;;;;;;;;;;5060844;28;19946;-76
2022/08/10 09:50:39;;;;;;;;;;;;;;;;;;5066324;28;19912;-79
2022/08/10 09:53:04;;;;;;;;;;;;;;;;;;5072510;28;20473;-80
2022/08/10 09:55:30;;;;;;;;;;;;;;;;;;5068104;28;20409;-77
2022/08/10 09:57:55;;;;;;;;;;;;;;;;;;5072284;28;19920;-78
2022/08/10 10:00:20;;;;;;;;;;;;;;;;;;5071153;28;19919;-80
2022/08/10 10:02:47;;;;;;;;;;;;;;;;;;5071129;28;20387;-80
2022/08/10 10:05:12;;;;;;;;;;;;;;;;;;5028946;28;19989;-78
2022/08/10 10:07:37;;;;;;;;;;;;;;;;;;5052344;28;20007;-78
2022/08/10 10:10:03;;;;;;;;;;;;;;;;;;5036171;28;20326;-78
2022/08/10 10:12:28;;;;;;;;;;;;;;;;;;5036036;28;19920;-77
2022/08/10 10:15:38;;;;;;;;;;;;;;;;;;5054199;28;19927;-78
2022/08/10 10:17:38;;;;;;;;;;;;;;;;;;5036182;28;20256;-79
2022/08/10 10:20:03;;;;;;;;;;;;;;;;;;5052430;28;19963;-79
2022/08/10 10:22:28;;;;;;;;;;;;;;;;;;5033529;28;20286;-78
2022/08/10 10:24:54;;;;;;;;;;;;;;;;;;5037041;28;19972;-79
2022/08/10 10:27:19;;;;;;;;;;;;;;;;;;5054076;28;19909;-79
2022/08/10 10:29:44;;;;;;;;;;;;;;;;;;5036886;28;20373;-79
2022/08/10 10:32:09;;;;;;;;;;;;;;;;;;5054431;28;20288;-78
2022/08/10 10:34:34;;;;;;;;;;;;;;;;;;5051017;28;19913;-79
2022/08/10 10:36:59;;;;;;;;;;;;;;;;;;5054174;28;19917;-78
2022/08/10 10:39:24;;;;;;;;;;;;;;;;;;5036240;28;19912;-78
2022/08/10 10:41:49;;;;;;;;;;;;;;;;;;5036150;28;19959;-79
2022/08/10 10:44:15;;;;;;;;;;;;;;;;;;5053383;28;20394;-78
2022/08/10 10:46:40;;;;;;;;;;;;;;;;;;5054216;28;20391;-78
2022/08/10 10:49:05;;;;;;;;;;;;;;;;;;5053807;28;19913;-79
2022/08/10 10:51:30;;;;;;;;;;;;;;;;;;5050001;28;20360;-79
2022/08/10 10:53:55;;;;;;;;;;;;;;;;;;5036165;28;19963;-79
2022/08/10 10:56:20;;;;;;;;;;;;;;;;;;5052869;28;19916;-79
2022/08/10 10:58:45;;;;;;;;;;;;;;;;;;5034950;28;19932;-79
2022/08/10 11:01:10;;;;;;;;;;;;;;;;;;5035325;28;19920;-77
2022/08/10 11:03:36;;;;;;;;;;;;;;;;;;5053319;28;19921;-78
2022/08/10 11:06:01;;;;;;;;;;;;;;;;;;5034512;28;20283;-78
2022/08/10 11:08:26;;;;;;;;;;;;;;;;;;5053507;28;19908;-78
2022/08/10 11:10:51;;;;;;;;;;;;;;;;;;5030774;28;19920;-79
2022/08/10 11:13:16;;;;;;;;;;;;;;;;;;5036066;28;19912;-78
2022/08/10 11:15:41;;;;;;;;;;;;;;;;;;5050403;28;19913;-79
2022/08/10 11:18:06;;;;;;;;;;;;;;;;;;5052659;28;19964;-80
2022/08/10 11:20:32;;;;;;;;;;;;;;;;;;5034759;28;20382;-80
2022/08/10 11:22:57;;;;;;;;;;;;;;;;;;5032496;28;19947;-79
2022/08/10 11:25:22;;;;;;;;;;;;;;;;;;5052283;28;20337;-78
2022/08/10 11:27:47;;;;;;;;;;;;;;;;;;5052673;28;20371;-79
2022/08/10 11:30:13;;;;;;;;;;;;;;;;;;5034703;28;20481;-79
2022/08/10 11:32:38;;;;;;;;;;;;;;;;;;5050821;28;19913;-79
2022/08/10 11:35:03;;;;;;;;;;;;;;;;;;5043115;28;20002;-78
2022/08/10 11:37:28;;;;;;;;;;;;;;;;;;5033590;28;19979;-79
2022/08/10 11:39:53;;;;;;;;;;;;;;;;;;5033329;28;20004;-78
2022/08/10 11:42:19;;;;;;;;;;;;;;;;;;5053047;28;19924;-79
2022/08/10 11:44:44;;;;;;;;;;;;;;;;;;5051203;28;20276;-78
2022/08/10 11:47:09;;;;;;;;;;;;;;;;;;5053231;28;20322;-79
2022/08/10 11:49:35;;;;;;;;;;;;;;;;;;5053055;28;20399;-78
2022/08/10 11:52:00;;;;;;;;;;;;;;;;;;5033537;28;19963;-79
2022/08/10 11:54:25;;;;;;;;;;;;;;;;;;5034622;28;19916;-79
2022/08/10 11:56:50;;;;;;;;;;;;;;;;;;5052511;28;19960;-79
2022/08/10 12:01:59;;;;;;;;;;;;;;;;;;5039776;28;19963;-80
2022/08/10 12:04:24;;;;;;;;;;;;;;;;;;5047615;28;19920;-80
2022/08/10 12:06:52;;;;;;;;;;;;;;;;;;5022778;28;19913;-79
2022/08/10 12:09:17;;;;;;;;;;;;;;;;;;5034735;28;19913;-79
2022/08/10 12:11:42;;;;;;;;;;;;;;;;;;5033224;28;19912;-79
2022/08/10 12:14:07;;;;;;;;;;;;;;;;;;5052570;28;19916;-79
2022/08/10 12:16:32;;;;;;;;;;;;;;;;;;5051186;28;19928;-80
2022/08/10 12:18:57;;;;;;;;;;;;;;;;;;5034305;28;19909;-78
2022/08/10 12:21:22;;;;;;;;;;;;;;;;;;5045838;28;19913;-76
2022/08/10 12:23:47;;;;;;;;;;;;;;;;;;5034790;28;19909;-76
2022/08/10 12:26:13;;;;;;;;;;;;;;;;;;5050125;28;19955;-79
2022/08/10 12:28:38;;;;;;;;;;;;;;;;;;5052834;28;19908;-79
2022/08/10 12:31:03;;;;;;;;;;;;;;;;;;5027367;28;19954;-76
2022/08/10 12:33:28;;;;;;;;;;;;;;;;;;5022636;28;20375;-76
2022/08/10 12:35:54;;;;;;;;;;;;;;;;;;5023210;28;20364;-75
2022/08/10 12:38:20;;;;;;;;;;;;;;;;;;5040394;28;20027;-75
2022/08/10 12:40:45;;;;;;;;;;;;;;;;;;5024163;28;19913;-76
2022/08/10 12:43:10;;;;;;;;;;;;;;;;;;5050486;28;20338;-76
2022/08/10 12:45:35;;;;;;;;;;;;;;;;;;5052208;28;19909;-76
2022/08/10 12:48:00;;;;;;;;;;;;;;;;;;5052599;28;19913;-76
2022/08/10 12:50:25;;;;;;;;;;;;;;;;;;5050528;28;20020;-76
2022/08/10 12:52:51;;;;;;;;;;;;;;;;;;5051937;28;19909;-76
2022/08/10 12:55:16;;;;;;;;;;;;;;;;;;5052348;28;19917;-75
2022/08/10 12:57:41;;;;;;;;;;;;;;;;;;5051855;28;19928;-76
2022/08/10 13:00:06;;;;;;;;;;;;;;;;;;5050322;28;20354;-76
2022/08/10 13:02:32;;;;;;;;;;;;;;;;;;5051979;28;20317;-76
2022/08/10 13:04:57;;;;;;;;;;;;;;;;;;5034386;28;20064;-76
2022/08/10 13:07:22;;;;;;;;;;;;;;;;;;5034379;28;20368;-76
2022/08/10 13:09:47;;;;;;;;;;;;;;;;;;5031368;28;20356;-76
2022/08/10 13:12:12;;;;;;;;;;;;;;;;;;5019434;28;19917;-76
2022/08/10 13:14:38;;;;;;;;;;;;;;;;;;5014794;28;19960;-76
2022/08/10 13:17:03;;;;;;;;;;;;;;;;;;5032248;28;19913;-76
2022/08/10 13:19:28;;;;;;;;;;;;;;;;;;5014404;28;19909;-76
2022/08/10 13:21:53;;;;;;;;;;;;;;;;;;5039435;28;19931;-76
2022/08/10 13:24:19;;;;;;;;;;;;;;;;;;5039435;28;19913;-76
2022/08/10 13:26:44;;;;;;;;;;;;;;;;;;5018408;28;19913;-76
2022/08/10 13:29:09;;;;;;;;;;;;;;;;;;5036442;28;20283;-76
2022/08/10 13:31:34;;;;;;;;;;;;;;;;;;5054750;28;20437;-77
2022/08/10 13:33:59;;;;;;;;;;;;;;;;;;5037964;28;19909;-76
2022/08/10 13:36:24;;;;;;;;;;;;;;;;;;5052228;28;19921;-76
2022/08/10 13:38:50;;;;;;;;;;;;;;;;;;5028559;28;19921;-76
2022/08/10 13:41:15;;;;;;;;;;;;;;;;;;5026047;28;20001;-76
2022/08/10 13:43:40;;;;;;;;;;;;;;;;;;5027546;28;19913;-76
2022/08/10 13:46:05;;;;;;;;;;;;;;;;;;5025410;28;19919;-76
2022/08/10 13:48:31;;;;;;;;;;;;;;;;;;5043665;28;19921;-76
2022/08/10 13:50:56;;;;;;;;;;;;;;;;;;5040455;28;19946;-76
2022/08/10 13:53:21;;;;;;;;;;;;;;;;;;5026558;28;19912;-78
2022/08/10 13:55:46;;;;;;;;;;;;;;;;;;5025382;28;20288;-78
2022/08/10 13:58:12;;;;;;;;;;;;;;;;;;5026568;28;20331;-78
2022/08/10 14:00:37;;;;;;;;;;;;;;;;;;5024684;28;19917;-79
2022/08/10 14:03:02;;;;;;;;;;;;;;;;;;5041998;28;20522;-79
2022/08/10 14:05:27;;;;;;;;;;;;;;;;;;5024975;28;20637;-78
2022/08/10 14:07:52;;;;;;;;;;;;;;;;;;5043607;28;19925;-79
2022/08/10 14:10:17;;;;;;;;;;;;;;;;;;5024785;28;19917;-79
2022/08/10 14:12:42;;;;;;;;;;;;;;;;;;5041618;28;19981;-81
2022/08/10 14:15:08;;;;;;;;;;;;;;;;;;5022482;28;20272;-80
2022/08/10 14:17:33;;;;;;;;;;;;;;;;;;5026696;28;19988;-80
2022/08/10 14:19:58;;;;;;;;;;;;;;;;;;5042163;28;19912;-80
2022/08/10 14:22:23;;;;;;;;;;;;;;;;;;5025364;28;19966;-80
2022/08/10 14:24:50;;;;;;;;;;;;;;;;;;5042264;28;19917;-80
2022/08/10 14:27:16;;;;;;;;;;;;;;;;;;5041006;28;19962;-80
2022/08/10 14:29:41;;;;;;;;;;;;;;;;;;5021306;28;19921;-80
2022/08/10 14:32:06;;;;;;;;;;;;;;;;;;5042414;28;19912;-80
2022/08/10 14:34:31;;;;;;;;;;;;;;;;;;5025991;28;20371;-82
2022/08/10 14:36:56;;;;;;;;;;;;;;;;;;5028475;28;19925;-80
2022/08/10 14:39:22;;;;;;;;;;;;;;;;;;5039461;28;20008;-82
2022/08/10 14:41:47;;;;;;;;;;;;;;;;;;5045698;28;19968;-80
2022/08/10 14:44:12;;;;;;;;;;;;;;;;;;5049192;28;20073;-80
2022/08/10 14:46:37;;;;;;;;;;;;;;;;;;5050240;28;19913;-80
2022/08/10 14:49:02;;;;;;;;;;;;;;;;;;5026937;28;19919;-79
2022/08/10 14:51:28;;;;;;;;;;;;;;;;;;5026810;28;19923;-78
2022/08/10 14:53:53;;;;;;;;;;;;;;;;;;5030561;28;19967;-77
2022/08/10 14:56:18;;;;;;;;;;;;;;;;;;5047644;28;20326;-76
2022/08/10 14:58:43;;;;;;;;;;;;;;;;;;5044899;28;19927;-77
2022/08/10 15:01:08;;;;;;;;;;;;;;;;;;5020989;28;20374;-76
2022/08/10 15:03:33;;;;;;;;;;;;;;;;;;5037230;28;19924;-77
2022/08/10 15:05:58;;;;;;;;;;;;;;;;;;5058104;28;20425;-76
2022/08/10 15:08:24;;;;;;;;;;;;;;;;;;5066305;28;19916;-77
2022/08/10 15:10:49;;;;;;;;;;;;;;;;;;5059423;28;20462;-76
2022/08/10 15:13:14;;;;;;;;;;;;;;;;;;5065289;28;20363;-76
2022/08/10 15:15:39;;;;;;;;;;;;;;;;;;5059697;28;20431;-75
2022/08/10 15:18:05;;;;;;;;;;;;;;;;;;5065121;28;19924;-77
2022/08/10 15:20:30;;;;;;;;;;;;;;;;;;5067674;28;19919;-78
2022/08/10 15:22:55;;;;;;;;;;;;;;;;;;5061479;28;20091;-77
2022/08/10 15:25:20;;;;;;;;;;;;;;;;;;5061643;28;19954;-77
2022/08/10 15:27:45;;;;;;;;;;;;;;;;;;5063401;28;20520;-78
2022/08/10 15:30:10;;;;;;;;;;;;;;;;;;5059747;28;19912;-78
2022/08/10 15:38:04;;;;;;;;;;;;;;;;;;5063851;28;20002;-78
2022/08/10 15:40:29;;;;;;;;;;;;;;;;;;5065978;28;20639;-77
2022/08/10 15:42:54;;;;;;;;;;;;;;;;;;5062799;28;19920;-78
2022/08/10 15:45:19;;;;;;;;;;;;;;;;;;5061672;28;19917;-78
2022/08/10 15:47:44;;;;;;;;;;;;;;;;;;5065904;28;19923;-77
2022/08/10 15:50:10;;;;;;;;;;;;;;;;;;5065942;28;19956;-77
2022/08/10 15:52:35;;;;;;;;;;;;;;;;;;5060294;28;19920;-76
2022/08/10 15:55:00;;;;;;;;;;;;;;;;;;5059908;28;19948;-75
2022/08/10 15:57:25;;;;;;;;;;;;;;;;;;5063693;28;19924;-75
2022/08/10 15:59:50;;;;;;;;;;;;;;;;;;5061880;28;19917;-76
2022/08/10 16:02:15;;;;;;;;;;;;;;;;;;5063475;28;19927;-76
2022/08/10 16:04:41;;;;;;;;;;;;;;;;;;5043886;28;19928;-76
2022/08/10 16:07:06;;;;;;;;;;;;;;;;;;5027962;28;19920;-76
2022/08/10 16:09:31;;;;;;;;;;;;;;;;;;5031882;28;19913;-75
2022/08/10 16:11:56;;;;;;;;;;;;;;;;;;5050542;28;19963;-77
2022/08/10 16:14:21;;;;;;;;;;;;;;;;;;5051756;28;20286;-77
2022/08/10 16:16:47;;;;;;;;;;;;;;;;;;5050495;28;20447;-77
2022/08/10 16:19:12;;;;;;;;;;;;;;;;;;5051857;28;19913;-77
2022/08/10 16:21:37;;;;;;;;;;;;;;;;;;5042271;28;19913;-79
2022/08/10 16:24:03;;;;;;;;;;;;;;;;;;5051311;28;19913;-75
2022/08/10 16:26:28;;;;;;;;;;;;;;;;;;5046744;28;20393;-76
2022/08/10 16:28:53;;;;;;;;;;;;;;;;;;5043003;28;20004;-75
2022/08/10 16:31:18;;;;;;;;;;;;;;;;;;5031564;28;20405;-75
2022/08/10 16:33:43;;;;;;;;;;;;;;;;;;5034388;28;19967;-75
2022/08/10 16:36:08;;;;;;;;;;;;;;;;;;5057642;28;19913;-75
2022/08/10 16:38:33;;;;;;;;;;;;;;;;;;5047521;28;19917;-76
2022/08/10 16:40:58;;;;;;;;;;;;;;;;;;5047899;28;20390;-75